Time;durP1;ratioP1;P1;durP2;ratioP2;P2;SDS_P1;SDS_P2;PMS_P1;PMS_P2;Temp;Humidity;BMP_temperature;BMP_pressure;BME280_temperature;BME280_humidity;BME280_pressure;Samples;Min_cycle;Max_cycle;Signal;HPM_P1;HPM_P2
2022/01/23 00:01:33;;;;;;;10.80;3.45;;;;;;;;;;5098844;28;20047;-75
2022/01/23 00:03:58;;;;;;;8.68;2.95;;;6.40;99.90;;;;;;5116614;28;20377;-74
2022/01/23 00:06:24;;;;;;;11.50;3.38;;;6.40;99.90;;;;;;5116656;28;20413;-74
2022/01/23 00:08:50;;;;;;;8.52;2.78;;;6.40;99.90;;;;;;5116248;28;20043;-75
2022/01/23 00:11:17;;;;;;;12.93;3.65;;;6.50;99.90;;;;;;5116175;28;20043;-75
2022/01/23 00:19:11;;;;;;;10.85;3.58;;;6.50;99.90;;;;;;5115964;28;20421;-74
2022/01/23 00:21:39;;;;;;;14.30;3.88;;;6.40;99.90;;;;;;5116118;28;20456;-75
2022/01/23 00:32:00;;;;;;;7.65;2.88;;;6.50;99.90;;;;;;5097908;28;20077;-75
2022/01/23 00:34:25;;;;;;;10.57;3.05;;;6.50;99.90;;;;;;5115594;28;20040;-75
2022/01/23 00:36:51;;;;;;;16.15;3.40;;;6.50;99.90;;;;;;5115780;28;20436;-75
2022/01/23 00:39:17;;;;;;;15.35;3.50;;;6.50;99.90;;;;;;5114771;28;20052;-72
2022/01/23 00:41:42;;;;;;;8.55;3.88;;;6.50;99.90;;;;;;5115628;28;20054;-74
2022/01/23 00:44:08;;;;;;;10.68;3.53;;;6.50;99.90;;;;;;5115872;28;20048;-73
2022/01/23 00:46:36;;;;;;;11.95;3.67;;;6.50;99.90;;;;;;5115101;28;20351;-74
2022/01/23 00:51:38;;;;;;;11.95;3.03;;;6.50;99.90;;;;;;5115308;28;20138;-74
2022/01/23 00:54:06;;;;;;;9.23;3.38;;;6.50;99.90;;;;;;5115539;28;20047;-73
2022/01/23 00:56:32;;;;;;;10.85;3.17;;;6.50;99.90;;;;;;5115323;28;20151;-75
2022/01/23 00:58:59;;;;;;;13.30;2.90;;;6.50;99.90;;;;;;5115292;28;20419;-74
2022/01/23 01:01:25;;;;;;;13.52;3.72;;;6.50;99.90;;;;;;5115306;28;20096;-75
2022/01/23 01:03:51;;;;;;;9.80;3.40;;;6.50;99.90;;;;;;5115485;28;20378;-73
2022/01/23 01:06:17;;;;;;;8.18;2.90;;;6.50;99.90;;;;;;5115176;28;20432;-75
2022/01/23 01:08:44;;;;;;;15.13;3.75;;;6.50;99.90;;;;;;5114825;28;20035;-74
2022/01/23 01:14:20;;;;;;;11.77;3.70;;;6.50;99.90;;;;;;5098093;28;20138;-73
2022/01/23 01:30:25;;;;;;;;;;;6.40;99.90;;;;;;5115268;28;20562;-73
2022/01/23 01:35:28;;;;;;;13.68;4.10;;;6.40;99.90;;;;;;5114554;28;20067;-73
2022/01/23 01:37:53;;;;;;;8.52;4.20;;;6.40;99.90;;;;;;5114401;28;20350;-76
2022/01/23 01:40:21;;;;;;;10.75;4.15;;;6.60;99.90;;;;;;5114025;28;20470;-74
2022/01/23 01:42:47;;;;;;;6.55;3.63;;;6.40;99.90;;;;;;5096214;28;20050;-75
2022/01/23 01:45:13;;;;;;;11.77;4.28;;;6.40;99.90;;;;;;5096456;28;20035;-75
2022/01/23 01:47:51;;;;;;;15.93;4.28;;;6.40;99.90;;;;;;5114653;28;20071;-75
2022/01/23 01:50:16;;;;;;;13.48;4.15;;;6.40;99.90;;;;;;5095661;28;20063;-75
2022/01/23 01:52:42;;;;;;;19.88;4.85;;;6.40;99.90;;;;;;5096161;28;20075;-73
2022/01/23 01:55:12;;;;;;;9.40;4.03;;;6.40;99.90;;;;;;5096016;28;20421;-74
2022/01/23 01:57:50;;;;;;;9.68;4.25;;;6.40;99.90;;;;;;5114072;28;20047;-76
2022/01/23 02:00:44;;;;;;;7.32;4.00;;;6.30;99.90;;;;;;5114151;28;20075;-76
2022/01/23 02:08:25;;;;;;;11.02;4.55;;;6.30;99.90;;;;;;5113887;28;20480;-74
2022/01/23 02:10:56;;;;;;;10.00;4.32;;;6.30;99.90;;;;;;5113523;28;20353;-73
2022/01/23 02:13:36;;;;;;;13.38;4.43;;;6.30;99.90;;;;;;5095723;28;20051;-75
2022/01/23 02:51:42;;;;;;;12.32;4.20;;;6.30;99.90;;;;;;5113369;28;19919;-73
2022/01/23 02:56:45;;;;;;;13.70;4.45;;;6.30;99.90;;;;;;5113402;28;20051;-74
2022/01/23 02:59:20;;;;;;;11.20;4.35;;;6.30;99.90;;;;;;5113533;28;20039;-75
2022/01/23 03:04:34;;;;;;;12.35;4.50;;;6.40;99.90;;;;;;5037860;28;20080;-74
2022/01/23 03:15:14;;;;;;;11.30;4.43;;;6.40;99.90;;;;;;5014297;28;20157;-74
2022/01/23 03:29:01;;;;;;;10.20;3.88;;;6.40;99.90;;;;;;4975158;28;20142;-75
2022/01/23 03:31:28;;;;;;;12.77;3.97;;;6.40;99.90;;;;;;4975359;28;20042;-74
2022/01/23 03:33:54;;;;;;;9.57;3.95;;;6.40;99.90;;;;;;4959290;28;20484;-75
2022/01/23 03:36:20;;;;;;;10.15;4.38;;;6.40;99.90;;;;;;4975146;28;20051;-75
2022/01/23 03:38:46;;;;;;;15.23;4.28;;;6.40;99.90;;;;;;4959290;28;20113;-73
2022/01/23 03:41:12;;;;;;;12.55;4.95;;;6.80;99.90;;;;;;4958825;28;20163;-74
2022/01/23 03:43:40;;;;;;;9.63;5.35;;;6.40;99.90;;;;;;4958558;28;20062;-74
2022/01/23 03:51:20;;;;;;;11.65;4.40;;;6.40;99.90;;;;;;5033668;28;20454;-75
2022/01/23 03:53:47;;;;;;;10.05;4.35;;;6.40;99.90;;;;;;5033465;28;20037;-75
2022/01/23 03:56:14;;;;;;;15.07;4.40;;;6.40;99.90;;;;;;5049469;28;20048;-74
2022/01/23 03:58:40;;;;;;;9.75;4.05;;;6.40;99.90;;;;;;5098037;28;20412;-75
2022/01/23 04:01:06;;;;;;;15.38;4.47;;;6.40;99.90;;;;;;5116455;28;20732;-74
2022/01/23 04:03:35;;;;;;;13.40;4.53;;;6.40;99.90;;;;;;5116716;28;20047;-75
2022/01/23 04:06:00;;;;;;;11.55;4.03;;;6.40;99.90;;;;;;5116638;28;20040;-76
2022/01/23 04:08:26;;;;;;;9.90;4.15;;;6.30;99.90;;;;;;5116605;28;20401;-75
2022/01/23 04:10:52;;;;;;;16.27;4.30;;;6.30;99.90;;;;;;5116543;28;20393;-76
2022/01/23 04:13:28;;;;;;;13.43;5.32;;;6.30;99.90;;;;;;5097198;28;20047;-75
2022/01/23 04:16:11;;;;;;;5.78;3.63;;;6.30;99.90;;;;;;5116384;28;20043;-74
2022/01/23 04:19:10;;;;;;;12.55;4.47;;;6.40;99.90;;;;;;5116108;28;20126;-74
2022/01/23 04:32:57;;;;;;;;;;;6.30;99.90;;;;;;5116196;28;20787;-75
2022/01/23 04:59:53;;;;;;;7.28;4.63;;;6.30;99.90;;;;;;5115178;28;20302;-76
2022/01/23 05:04:53;;;;;;;12.43;5.05;;;;;;;;;;5115221;28;20055;-76
2022/01/23 05:07:25;;;;;;;11.05;4.63;;;;;;;;;;5115180;28;20040;-74
2022/01/23 05:09:51;;;;;;;15.98;5.75;;;6.40;99.90;;;;;;5115399;28;20046;-73
2022/01/23 05:12:17;;;;;;;14.57;5.40;;;6.40;99.90;;;;;;5096833;28;20445;-75
2022/01/23 05:14:45;;;;;;;14.27;5.65;;;6.40;99.90;;;;;;5114848;28;20051;-75
2022/01/23 05:17:14;;;;;;;11.38;5.35;;;6.40;99.90;;;;;;5097237;28;20135;-73
2022/01/23 05:19:41;;;;;;;11.00;5.35;;;6.30;99.90;;;;;;5115319;28;20100;-73
2022/01/23 05:22:57;;;;;;;11.23;5.47;;;6.50;99.90;;;;;;5114915;28;20043;-74
2022/01/23 05:25:12;;;;;;;12.38;5.57;;;6.30;99.90;;;;;;5100056;28;20386;-75
2022/01/23 05:27:38;;;;;;;10.82;5.32;;;6.30;99.90;;;;;;5114993;28;20042;-76
2022/01/23 05:30:05;;;;;;;14.30;4.63;;;6.30;99.90;;;;;;5114701;28;20126;-74
2022/01/23 05:32:35;;;;;;;13.23;5.50;;;6.30;99.90;;;;;;5114724;28;20125;-75
2022/01/23 05:35:02;;;;;;;11.05;5.25;;;6.20;99.90;;;;;;5114571;28;20675;-75
2022/01/23 05:37:28;;;;;;;14.88;6.30;;;6.30;99.90;;;;;;5096625;28;20467;-74
2022/01/23 05:39:53;;;;;;;7.60;4.53;;;6.80;99.90;;;;;;5114233;28;20083;-73
2022/01/23 05:42:19;;;;;;;10.25;5.53;;;;;;;;;;5114363;28;20432;-75
2022/01/23 05:44:45;;;;;;;8.40;4.85;;;6.30;99.90;;;;;;5114186;28;20101;-75
2022/01/23 05:47:12;;;;;;;12.20;5.35;;;6.30;99.90;;;;;;5114656;28;20044;-73
2022/01/23 05:49:38;;;;;;;11.45;5.60;;;6.30;99.90;;;;;;5096120;28;20051;-74
2022/01/23 05:52:05;;;;;;;12.13;5.03;;;6.30;99.90;;;;;;5114534;28;20047;-75
2022/01/23 05:54:31;;;;;;;9.30;5.60;;;6.30;99.90;;;;;;5113987;28;20123;-75
2022/01/23 05:56:57;;;;;;;7.93;4.35;;;6.30;99.90;;;;;;5114234;28;20428;-74
2022/01/23 05:59:23;;;;;;;11.30;4.80;;;6.30;99.90;;;;;;5095846;28;20059;-74
2022/01/23 06:01:54;;;;;;;8.63;4.43;;;6.30;99.90;;;;;;5114384;28;20043;-74
2022/01/23 06:04:20;;;;;;;10.52;4.82;;;6.30;99.90;;;;;;5095627;28;20145;-75
2022/01/23 06:06:47;;;;;;;10.35;4.68;;;6.50;99.90;;;;;;5095832;28;20127;-75
2022/01/23 06:09:13;;;;;;;7.25;4.00;;;6.30;99.90;;;;;;5114223;28;20040;-75
2022/01/23 06:11:38;;;;;;;7.18;4.75;;;6.70;99.90;;;;;;5113452;28;20047;-75
2022/01/23 06:14:06;;;;;;;8.23;4.65;;;6.40;99.90;;;;;;5112875;28;20043;-74
2022/01/23 06:16:32;;;;;;;11.60;5.32;;;6.30;99.90;;;;;;5113477;28;20416;-73
2022/01/23 06:18:58;;;;;;;12.18;5.03;;;6.30;99.90;;;;;;5114021;28;20038;-75
2022/01/23 06:21:24;;;;;;;7.95;4.60;;;6.30;99.90;;;;;;5114010;28;20028;-76
2022/01/23 06:24:00;;;;;;;7.18;4.53;;;6.20;99.90;;;;;;5113502;28;20050;-75
2022/01/23 06:26:47;;;;;;;7.70;5.20;;;6.30;99.90;;;;;;5114042;28;20039;-74
2022/01/23 06:29:15;;;;;;;11.82;4.60;;;6.20;99.90;;;;;;5095609;28;20491;-74
2022/01/23 06:31:42;;;;;;;6.95;4.72;;;6.30;99.90;;;;;;5113973;28;20039;-75
2022/01/23 06:34:09;;;;;;;7.63;4.43;;;6.20;99.90;;;;;;5113606;28;20039;-74
2022/01/23 06:36:35;;;;;;;7.20;4.72;;;6.20;99.90;;;;;;5113300;28;20126;-76
2022/01/23 06:39:03;;;;;;;8.88;5.10;;;6.20;99.90;;;;;;5113609;28;20524;-73
2022/01/23 06:41:29;;;;;;;8.88;4.28;;;6.20;99.90;;;;;;5095184;28;20105;-73
2022/01/23 06:43:55;;;;;;;11.23;4.65;;;6.20;99.90;;;;;;5113578;28;20040;-73
2022/01/23 06:46:20;;;;;;;10.25;4.82;;;6.20;99.90;;;;;;5113795;28;20032;-74
2022/01/23 06:48:46;;;;;;;10.07;4.45;;;6.20;99.90;;;;;;5114077;28;20047;-75
2022/01/23 06:51:12;;;;;;;10.88;4.63;;;6.20;99.90;;;;;;5113558;28;20458;-75
2022/01/23 06:53:37;;;;;;;7.30;4.32;;;6.20;99.90;;;;;;5113402;28;20438;-75
2022/01/23 06:56:03;;;;;;;6.18;4.18;;;6.20;99.90;;;;;;5113306;28;20040;-73
2022/01/23 06:58:29;;;;;;;9.95;4.50;;;6.20;99.90;;;;;;5095222;28;20044;-75
2022/01/23 07:00:55;;;;;;;8.07;4.55;;;6.20;99.90;;;;;;5113374;28;20145;-74
2022/01/23 07:03:20;;;;;;;9.20;4.80;;;6.30;99.90;;;;;;5113199;28;20130;-75
2022/01/23 07:05:46;;;;;;;6.40;4.38;;;6.20;99.90;;;;;;5113261;28;20040;-73
2022/01/23 07:08:12;;;;;;;9.57;5.38;;;6.20;99.90;;;;;;5095754;28;20043;-75
2022/01/23 07:10:37;;;;;;;8.32;5.32;;;6.20;99.90;;;;;;5095068;28;20097;-75
2022/01/23 07:13:03;;;;;;;9.55;5.63;;;6.20;99.90;;;;;;5113393;28;20044;-75
2022/01/23 07:15:29;;;;;;;9.77;5.25;;;6.20;99.90;;;;;;5094953;28;20036;-75
2022/01/23 07:17:54;;;;;;;8.38;5.10;;;6.20;99.90;;;;;;5113523;28;20042;-75
2022/01/23 07:20:20;;;;;;;12.27;5.25;;;6.20;99.90;;;;;;5113425;28;20047;-76
2022/01/23 07:22:46;;;;;;;11.50;5.53;;;6.20;99.90;;;;;;5113753;28;20120;-74
2022/01/23 07:25:11;;;;;;;9.30;5.55;;;6.20;99.90;;;;;;5113577;28;20039;-76
2022/01/23 07:27:45;;;;;;;9.40;5.35;;;6.10;99.90;;;;;;5113255;28;20044;-75
2022/01/23 07:30:23;;;;;;;10.35;5.72;;;6.10;99.90;;;;;;5094686;28;20048;-73
2022/01/23 07:32:49;;;;;;;11.60;6.18;;;6.10;99.90;;;;;;5113551;28;20039;-73
2022/01/23 07:35:15;;;;;;;12.75;6.68;;;6.10;99.90;;;;;;5113207;28;20039;-75
2022/01/23 07:37:40;;;;;;;12.57;6.32;;;6.10;99.90;;;;;;5113725;28;20039;-73
2022/01/23 07:40:07;;;;;;;11.57;5.93;;;6.10;99.90;;;;;;5113045;28;20138;-73
2022/01/23 07:42:33;;;;;;;11.40;5.63;;;6.00;99.90;;;;;;5113197;28;20048;-74
2022/01/23 07:44:59;;;;;;;7.78;5.45;;;;;;;;;;5112643;28;20424;-74
2022/01/23 07:47:25;;;;;;;9.10;5.40;;;6.00;99.90;;;;;;5094402;28;20043;-76
2022/01/23 07:49:51;;;;;;;9.88;5.82;;;5.90;99.90;;;;;;5107795;28;20043;-75
2022/01/23 07:52:17;;;;;;;7.82;5.80;;;5.90;99.90;;;;;;5116796;28;20044;-74
2022/01/23 07:54:43;;;;;;;10.85;5.40;;;5.90;99.90;;;;;;5116847;28;20043;-74
2022/01/23 07:57:09;;;;;;;11.60;6.00;;;7.10;99.90;;;;;;5116796;28;20065;-78
2022/01/23 07:59:35;;;;;;;10.55;6.00;;;5.80;99.90;;;;;;5081234;28;20101;-75
2022/01/23 08:02:01;;;;;;;8.02;5.65;;;5.80;99.90;;;;;;5116277;28;20484;-74
2022/01/23 08:04:27;;;;;;;11.20;6.50;;;5.80;99.90;;;;;;5097854;28;20056;-74
2022/01/23 08:07:09;;;;;;;12.05;6.97;;;5.80;99.90;;;;;;5116185;28;20322;-74
2022/01/23 08:09:35;;;;;;;10.13;6.95;;;5.80;99.90;;;;;;5080923;28;20040;-75
2022/01/23 08:12:01;;;;;;;14.73;7.30;;;5.80;99.90;;;;;;5097748;28;20118;-74
2022/01/23 08:14:26;;;;;;;10.93;6.93;;;5.70;99.90;;;;;;5114891;28;20078;-75
2022/01/23 08:16:52;;;;;;;11.25;7.20;;;5.80;99.90;;;;;;5115635;28;20047;-74
2022/01/23 08:19:18;;;;;;;14.82;7.38;;;5.80;99.90;;;;;;5115849;28;20593;-73
2022/01/23 08:21:44;;;;;;;15.77;8.02;;;;;;;;;;5097133;28;20062;-77
2022/01/23 08:24:11;;;;;;;12.38;7.93;;;5.80;99.90;;;;;;5116096;28;20652;-75
2022/01/23 08:26:37;;;;;;;11.68;7.40;;;5.80;99.90;;;;;;5096881;28;20083;-75
2022/01/23 08:29:05;;;;;;;13.98;6.53;;;5.80;99.90;;;;;;5116109;28;20432;-75
2022/01/23 08:31:30;;;;;;;12.82;6.82;;;5.80;99.90;;;;;;5115572;28;20031;-75
2022/01/23 08:33:57;;;;;;;10.05;6.50;;;5.90;99.90;;;;;;5115703;28;20039;-74
2022/01/23 08:36:23;;;;;;;12.40;6.68;;;6.00;99.90;;;;;;5120169;27;20587;-76
2022/01/23 08:38:48;;;;;;;12.43;6.50;;;6.00;99.90;;;;;;5135646;27;20411;-78
2022/01/23 08:43:51;;;;;;;8.43;5.07;;;6.20;99.90;;;;;;5135661;27;20049;-79
2022/01/23 08:46:17;;;;;;;9.05;5.25;;;6.20;99.90;;;;;;5132633;27;20038;-78
2022/01/23 08:48:44;;;;;;;9.13;5.10;;;6.30;99.90;;;;;;5135614;27;20050;-77
2022/01/23 08:51:11;;;;;;;8.57;5.32;;;6.30;99.90;;;;;;5117369;27;20031;-77
2022/01/23 08:53:37;;;;;;;9.23;4.80;;;6.30;99.90;;;;;;5132750;27;20042;-77
2022/01/23 08:56:03;;;;;;;8.32;5.20;;;6.40;99.90;;;;;;5135241;27;20031;-76
2022/01/23 08:58:30;;;;;;;6.85;5.18;;;6.40;99.90;;;;;;5133560;27;20043;-78
2022/01/23 09:00:55;;;;;;;9.27;5.30;;;6.50;99.90;;;;;;5111751;27;20054;-76
2022/01/23 09:03:21;;;;;;;7.25;4.78;;;6.50;99.90;;;;;;5115930;27;20043;-77
2022/01/23 09:05:47;;;;;;;7.22;4.38;;;6.50;99.90;;;;;;5116187;27;20039;-77
2022/01/23 09:08:12;;;;;;;11.60;4.80;;;6.60;99.90;;;;;;5134232;27;20031;-76
2022/01/23 09:10:52;;;;;;;9.93;5.18;;;6.60;99.90;;;;;;5134447;27;20420;-76
2022/01/23 09:15:55;;;;;;;8.73;5.28;;;6.60;99.90;;;;;;5131775;27;20177;-76
2022/01/23 09:18:21;;;;;;;10.48;5.93;;;6.70;99.90;;;;;;5116055;27;20126;-76
2022/01/23 09:20:47;;;;;;;9.90;5.32;;;6.70;99.90;;;;;;5115480;27;20038;-76
2022/01/23 09:23:12;;;;;;;7.32;5.53;;;6.80;99.90;;;;;;5115704;27;20042;-76
2022/01/23 09:25:38;;;;;;;8.25;4.82;;;6.80;99.90;;;;;;5115769;27;20121;-76
2022/01/23 09:28:04;;;;;;;9.55;5.05;;;6.90;99.90;;;;;;5115764;27;20039;-77
2022/01/23 09:30:35;;;;;;;9.90;5.75;;;6.90;99.90;;;;;;5134032;27;20152;-77
2022/01/23 09:33:03;;;;;;;12.63;5.85;;;6.90;99.90;;;;;;5115602;27;20027;-77
2022/01/23 09:35:29;;;;;;;9.15;5.72;;;7.00;99.90;;;;;;5131582;27;20023;-78
2022/01/23 09:37:54;;;;;;;8.88;5.78;;;7.00;99.90;;;;;;5134177;27;20046;-76
2022/01/23 09:40:20;;;;;;;7.82;6.07;;;7.10;99.90;;;;;;5133056;27;20440;-76
2022/01/23 09:43:01;;;;;;;10.20;6.53;;;7.20;99.90;;;;;;5133840;27;20317;-76
2022/01/23 09:45:29;;;;;;;8.77;6.10;;;7.20;99.90;;;;;;5132843;27;20031;-76
2022/01/23 09:47:55;;;;;;;9.57;6.13;;;7.20;99.90;;;;;;5133768;27;20073;-75
2022/01/23 09:50:21;;;;;;;10.57;6.57;;;7.20;99.90;;;;;;5098255;27;20442;-76
2022/01/23 09:52:47;;;;;;;9.13;6.35;;;7.30;99.90;;;;;;5115347;27;20074;-76
2022/01/23 09:55:13;;;;;;;7.45;5.47;;;7.30;99.90;;;;;;5115336;27;20066;-76
2022/01/23 09:57:46;;;;;;;7.38;5.15;;;7.30;99.90;;;;;;5133815;27;20451;-77
2022/01/23 10:00:15;;;;;;;8.27;4.68;;;7.30;99.90;;;;;;5112616;27;20332;-77
2022/01/23 10:02:42;;;;;;;6.22;4.55;;;7.40;99.90;;;;;;5114308;27;20039;-76
2022/01/23 10:05:08;;;;;;;7.30;4.80;;;7.40;99.90;;;;;;5112029;27;20070;-77
2022/01/23 10:07:39;;;;;;;6.60;5.05;;;7.40;99.90;;;;;;5115073;27;20038;-77
2022/01/23 10:10:13;;;;;;;7.13;4.53;;;7.50;99.90;;;;;;5133799;27;20150;-77
2022/01/23 10:12:45;;;;;;;6.95;4.47;;;7.60;99.90;;;;;;5132706;27;20451;-77
2022/01/23 10:15:11;;;;;;;8.25;4.75;;;7.60;99.90;;;;;;5131357;27;20043;-76
2022/01/23 10:17:37;;;;;;;5.30;4.00;;;7.60;99.90;;;;;;5132782;27;20329;-77
2022/01/23 10:20:07;;;;;;;6.60;3.88;;;7.70;99.90;;;;;;5096989;27;20055;-76
2022/01/23 10:22:36;;;;;;;4.95;3.10;;;7.70;99.90;;;;;;5114302;28;20047;-77
2022/01/23 10:25:09;;;;;;;3.45;2.08;;;7.70;99.90;;;;;;5131564;27;20047;-77
2022/01/23 10:28:04;;;;;;;4.05;2.70;;;7.70;99.90;;;;;;5114760;27;20047;-77
2022/01/23 10:30:39;;;;;;;3.65;1.80;;;7.80;99.90;;;;;;5134160;27;20054;-77
2022/01/23 10:33:10;;;;;;;4.70;2.20;;;7.80;99.90;;;;;;5133382;27;20093;-77
2022/01/23 10:35:55;;;;;;;4.20;2.10;;;7.80;99.90;;;;;;5133392;27;20047;-77
2022/01/23 10:38:22;;;;;;;2.80;2.10;;;8.00;99.90;;;;;;5133731;27;20069;-77
2022/01/23 10:41:03;;;;;;;4.35;2.42;;;7.70;99.90;;;;;;5133717;27;20067;-77
2022/01/23 10:48:59;;;;;;;4.18;2.53;;;7.70;99.90;;;;;;5115377;28;20279;-77
2022/01/23 10:51:31;;;;;;;3.78;2.30;;;7.70;99.90;;;;;;5115093;28;20484;-76
2022/01/23 10:54:11;;;;;;;5.20;2.97;;;7.70;99.90;;;;;;5133806;28;20054;-75
2022/01/23 10:56:40;;;;;;;7.22;2.83;;;8.10;99.90;;;;;;5114942;28;20089;-76
2022/01/23 10:59:12;;;;;;;5.25;2.83;;;7.70;99.90;;;;;;5133279;28;20043;-76
2022/01/23 11:01:39;;;;;;;4.30;2.53;;;7.70;99.90;;;;;;5098289;28;20450;-77
2022/01/23 11:04:13;;;;;;;3.45;2.08;;;7.70;99.90;;;;;;5098904;28;20495;-76
2022/01/23 11:06:59;;;;;;;;;;;7.70;99.90;;;;;;5114786;28;20043;-77
2022/01/23 11:09:27;;;;;;;3.38;2.08;;;7.70;99.90;;;;;;5133180;28;19919;-77
2022/01/23 11:12:00;;;;;;;4.28;2.08;;;7.80;99.90;;;;;;5114922;28;20099;-78
2022/01/23 11:17:24;;;;;;;3.38;1.52;;;7.80;99.90;;;;;;5133234;28;20042;-77
2022/01/23 11:20:01;;;;;;;4.20;2.13;;;7.90;99.90;;;;;;5132992;28;20047;-76
2022/01/23 11:22:34;;;;;;;5.70;2.47;;;7.80;99.90;;;;;;5115820;27;20050;-77
2022/01/23 11:25:04;;;;;;;2.97;1.83;;;8.20;99.90;;;;;;5137482;27;20054;-76
2022/01/23 11:27:37;;;;;;;3.75;2.40;;;8.00;99.90;;;;;;5118403;27;20042;-76
2022/01/23 11:30:05;;;;;;;3.45;1.75;;;8.00;99.90;;;;;;5136793;27;20039;-76
2022/01/23 11:32:37;;;;;;;4.28;2.20;;;8.00;99.90;;;;;;5136766;27;20061;-76
2022/01/23 11:35:09;;;;;;;4.20;2.83;;;8.50;99.90;;;;;;5137183;27;20047;-77
2022/01/23 11:37:39;;;;;;;3.15;2.00;;;8.00;99.90;;;;;;5135912;27;20062;-77
2022/01/23 11:40:22;;;;;;;4.80;2.80;;;8.40;99.90;;;;;;5118229;27;20051;-76
2022/01/23 11:53:43;;;;;;;4.22;2.05;;;8.00;99.90;;;;;;5056779;28;20052;-78
2022/01/23 11:54:06;;;;;;;3.00;2.10;;;8.00;99.90;;;;;;5057092;28;20152;-76
2022/01/23 11:56:36;;;;;;;4.45;2.60;;;8.00;99.90;;;;;;5073999;28;20044;-76
2022/01/23 11:59:28;;;;;;;5.35;2.63;;;8.00;99.90;;;;;;5073703;28;20052;-77
2022/01/23 12:04:39;;;;;;;4.57;2.63;;;8.20;99.90;;;;;;5049778;28;20119;-75
2022/01/23 12:07:14;;;;;;;3.33;2.15;;;8.20;99.90;;;;;;5073024;28;20371;-75
2022/01/23 12:09:43;;;;;;;5.38;2.20;;;8.80;99.90;;;;;;5055792;28;20159;-76
2022/01/23 12:12:32;;;;;;;6.72;2.78;;;8.20;99.90;;;;;;5056274;28;20063;-76
2022/01/23 12:18:17;;;;;;;5.03;2.13;;;8.40;99.90;;;;;;5073942;28;20056;-76
2022/01/23 12:20:45;;;;;;;4.68;2.40;;;8.30;99.90;;;;;;5074780;28;20167;-76
2022/01/23 12:23:11;;;;;;;4.28;2.38;;;8.30;99.90;;;;;;5074864;28;20421;-75
2022/01/23 12:25:50;;;;;;;4.20;2.55;;;8.30;99.90;;;;;;5122312;27;20077;-76
2022/01/23 12:28:21;;;;;;;6.38;2.70;;;8.30;99.90;;;;;;5137063;27;20034;-75
2022/01/23 12:30:49;;;;;;;4.70;2.38;;;8.20;99.90;;;;;;5137097;27;20046;-75
2022/01/23 12:33:22;;;;;;;5.70;2.65;;;8.30;99.90;;;;;;5137296;27;20046;-77
2022/01/23 12:35:55;;;;;;;7.70;2.65;;;8.20;99.90;;;;;;5134360;27;20035;-76
2022/01/23 12:38:37;;;;;;;4.15;2.30;;;8.20;99.90;;;;;;5119616;27;20038;-78
2022/01/23 12:41:37;;;;;;;5.55;2.80;;;8.30;99.90;;;;;;5137474;27;20046;-77
2022/01/23 12:44:21;;;;;;;3.67;2.47;;;8.30;99.90;;;;;;5033601;28;20053;-76
2022/01/23 12:46:55;;;;;;;3.63;2.60;;;8.20;99.90;;;;;;5033987;28;20132;-76
2022/01/23 12:49:37;;;;;;;3.42;2.03;;;8.20;99.90;;;;;;5017101;28;20042;-76
2022/01/23 12:52:06;;;;;;;7.85;2.40;;;8.20;99.90;;;;;;5017707;28;20135;-75
2022/01/23 12:54:35;;;;;;;5.80;2.70;;;8.20;99.90;;;;;;5033927;28;20056;-76
2022/01/23 12:57:07;;;;;;;4.05;2.67;;;8.20;99.90;;;;;;5019120;28;20029;-76
2022/01/23 12:59:35;;;;;;;4.97;2.45;;;8.10;99.90;;;;;;5032433;28;20088;-76
2022/01/23 13:02:06;;;;;;;5.60;2.63;;;8.10;99.90;;;;;;5032726;28;20188;-76
2022/01/23 13:04:51;;;;;;;3.67;2.20;;;8.10;99.90;;;;;;5032996;28;20048;-77
2022/01/23 13:08:18;;;;;;;4.13;2.30;;;8.80;99.90;;;;;;5034900;28;20046;-76
2022/01/23 13:13:36;;;;;;;5.05;2.40;;;8.10;99.90;;;;;;4975840;28;20050;-77
2022/01/23 13:18:46;;;;;;;3.53;2.05;;;;;;;;;;4980482;28;20046;-76
2022/01/23 13:29:57;;;;;;;5.15;2.55;;;8.10;99.90;;;;;;5050781;28;20486;-76
2022/01/23 13:34:53;;;;;;;4.47;2.58;;;8.00;99.90;;;;;;5044523;28;20044;-78
2022/01/23 13:37:22;;;;;;;6.15;2.88;;;8.10;99.90;;;;;;5027911;28;20203;-78
2022/01/23 13:39:58;;;;;;;4.85;2.45;;;8.10;99.90;;;;;;5042635;28;20120;-77
2022/01/23 13:59:48;;;;;;;7.28;3.58;;;8.10;99.90;;;;;;5113757;28;20043;-76
2022/01/23 14:02:17;;;;;;;7.22;3.38;;;8.00;99.90;;;;;;5114035;28;20514;-77
2022/01/23 14:04:50;;;;;;;5.57;3.50;;;8.00;99.90;;;;;;5115443;28;20035;-79
2022/01/23 14:07:18;;;;;;;6.40;3.70;;;8.10;99.90;;;;;;5114851;28;20039;-79
2022/01/23 14:09:45;;;;;;;4.57;3.55;;;8.00;99.90;;;;;;5116059;28;20446;-77
2022/01/23 14:12:13;;;;;;;6.60;3.47;;;8.00;99.90;;;;;;5117163;28;20047;-77
2022/01/23 14:15:05;;;;;;;5.68;3.83;;;8.00;99.90;;;;;;5115954;28;20035;-76
2022/01/23 14:17:36;;;;;;;6.28;3.63;;;7.90;99.90;;;;;;5114693;28;20032;-78
2022/01/23 14:20:16;;;;;;;5.80;3.42;;;7.80;99.90;;;;;;5115967;28;20105;-78
2022/01/23 14:22:48;;;;;;;5.82;3.72;;;7.90;99.90;;;;;;5116172;28;20431;-78
2022/01/23 14:25:22;;;;;;;6.43;3.83;;;7.90;99.90;;;;;;5115325;28;20101;-77
2022/01/23 14:28:02;;;;;;;7.50;3.88;;;7.90;99.90;;;;;;5096261;28;20359;-77
2022/01/23 14:30:29;;;;;;;6.32;3.97;;;7.80;99.90;;;;;;5116777;28;20432;-77
2022/01/23 14:33:04;;;;;;;10.60;4.18;;;7.80;99.90;;;;;;5117325;28;20035;-77
2022/01/23 14:35:32;;;;;;;8.32;4.57;;;7.90;99.90;;;;;;5115362;28;20127;-77
2022/01/23 14:38:19;;;;;;;6.60;3.85;;;7.90;99.90;;;;;;5117045;28;20047;-79
2022/01/23 14:41:01;;;;;;;9.77;4.55;;;7.90;99.90;;;;;;5121488;27;20043;-79
2022/01/23 14:43:32;;;;;;;6.68;4.18;;;7.90;99.90;;;;;;5138858;27;20039;-78
2022/01/23 14:45:59;;;;;;;8.68;4.30;;;7.80;99.90;;;;;;5120479;28;20043;-76
2022/01/23 14:48:25;;;;;;;7.40;3.92;;;7.80;99.90;;;;;;5138265;28;20118;-78
2022/01/23 14:50:53;;;;;;;10.65;4.60;;;7.90;99.90;;;;;;5138532;28;20043;-77
2022/01/23 14:53:23;;;;;;;8.95;4.47;;;7.80;99.90;;;;;;5138687;28;20081;-78
2022/01/23 14:55:56;;;;;;;7.53;4.45;;;7.80;99.90;;;;;;5119957;28;20051;-76
2022/01/23 14:58:22;;;;;;;6.63;4.18;;;8.10;99.90;;;;;;5140513;27;20039;-76
2022/01/23 15:00:53;;;;;;;6.75;4.78;;;7.80;99.90;;;;;;5142487;27;20039;-76
2022/01/23 15:03:21;;;;;;;7.93;4.68;;;7.70;99.90;;;;;;5122254;27;20470;-79
2022/01/23 15:05:47;;;;;;;7.65;4.60;;;7.70;99.90;;;;;;5139984;27;20034;-78
2022/01/23 15:08:13;;;;;;;10.02;4.82;;;8.10;99.90;;;;;;5140292;27;20035;-77
2022/01/23 15:10:41;;;;;;;9.85;5.30;;;8.20;99.90;;;;;;5121344;27;20043;-79
2022/01/23 15:13:08;;;;;;;9.23;4.80;;;7.70;99.90;;;;;;5139166;27;20086;-78
2022/01/23 15:15:34;;;;;;;9.60;4.55;;;7.70;99.90;;;;;;5141908;27;20438;-77
2022/01/23 15:18:00;;;;;;;12.20;5.07;;;7.70;99.90;;;;;;5144743;27;20039;-77
2022/01/23 15:20:26;;;;;;;8.02;4.53;;;7.70;99.90;;;;;;5143710;27;20447;-77
2022/01/23 15:22:52;;;;;;;8.75;4.80;;;7.70;99.90;;;;;;5143839;27;20039;-78
2022/01/23 15:25:19;;;;;;;6.53;4.25;;;8.00;99.90;;;;;;5143522;27;20061;-78
2022/01/23 15:27:46;;;;;;;8.55;5.00;;;7.70;99.90;;;;;;5143603;27;20428;-77
2022/01/23 15:30:16;;;;;;;8.45;4.75;;;7.60;99.90;;;;;;5143779;27;20050;-79
2022/01/23 15:32:44;;;;;;;7.90;4.70;;;7.60;99.90;;;;;;5143387;27;20038;-76
2022/01/23 15:35:11;;;;;;;7.97;5.45;;;7.60;99.90;;;;;;5143195;27;20027;-77
2022/01/23 15:37:37;;;;;;;8.00;4.80;;;7.80;99.90;;;;;;5139928;27;20079;-77
2022/01/23 15:40:05;;;;;;;7.32;4.70;;;7.60;99.90;;;;;;5120775;27;20530;-77
2022/01/23 15:42:31;;;;;;;5.47;3.67;;;7.60;99.90;;;;;;5121029;27;20068;-78
2022/01/23 15:44:57;;;;;;;8.27;4.40;;;8.10;99.90;;;;;;5140178;27;20043;-78
2022/01/23 15:47:22;;;;;;;9.18;4.40;;;7.60;99.90;;;;;;5139774;27;20043;-77
2022/01/23 15:49:48;;;;;;;7.32;3.90;;;7.80;99.90;;;;;;5139493;27;20133;-77
2022/01/23 15:52:14;;;;;;;7.88;4.10;;;7.50;99.90;;;;;;5140005;27;20050;-77
2022/01/23 15:54:41;;;;;;;9.77;4.30;;;;;;;;;;5139441;27;20043;-77
2022/01/23 15:57:07;;;;;;;7.78;3.72;;;7.50;99.90;;;;;;5121410;27;20459;-77
2022/01/23 15:59:33;;;;;;;10.45;4.95;;;7.70;99.90;;;;;;5139408;27;20043;-76
2022/01/23 16:01:59;;;;;;;7.47;4.25;;;7.50;99.90;;;;;;5121031;27;20051;-76
2022/01/23 16:04:24;;;;;;;7.68;3.80;;;7.50;99.90;;;;;;5139228;27;20096;-76
2022/01/23 16:06:50;;;;;;;6.90;3.90;;;7.50;99.90;;;;;;5139530;27;20481;-76
2022/01/23 16:09:16;;;;;;;6.32;4.07;;;7.50;99.90;;;;;;5139189;27;20051;-77
2022/01/23 16:11:42;;;;;;;7.28;3.85;;;7.40;99.90;;;;;;5121939;27;20332;-76
2022/01/23 16:14:08;;;;;;;10.95;4.13;;;7.40;99.90;;;;;;5138375;27;20046;-77
2022/01/23 16:16:34;;;;;;;5.80;3.40;;;7.40;99.90;;;;;;5138714;27;20027;-78
2022/01/23 16:19:02;;;;;;;8.43;4.15;;;7.40;99.90;;;;;;5120224;27;20381;-77
2022/01/23 16:21:28;;;;;;;9.60;4.38;;;7.40;99.90;;;;;;5139047;27;20350;-77
2022/01/23 16:23:54;;;;;;;10.20;4.30;;;7.40;99.90;;;;;;5138855;27;20039;-76
2022/01/23 16:26:20;;;;;;;8.93;4.53;;;7.40;99.90;;;;;;5138730;27;20111;-76
2022/01/23 16:28:47;;;;;;;6.90;4.13;;;7.40;99.90;;;;;;5139016;27;20035;-78
2022/01/23 16:31:13;;;;;;;5.57;3.58;;;7.40;99.90;;;;;;5138665;27;20053;-75
2022/01/23 16:33:39;;;;;;;7.75;4.07;;;7.40;99.90;;;;;;5138850;27;20039;-76
2022/01/23 16:36:06;;;;;;;10.73;3.78;;;7.40;99.90;;;;;;5138857;27;20111;-76